Time;durP1;ratioP1;P1;durP2;ratioP2;P2;SDS_P1;SDS_P2;PMS_P1;PMS_P2;Temp;Humidity;BMP_temperature;BMP_pressure;BME280_temperature;BME280_humidity;BME280_pressure;Samples;Min_cycle;Max_cycle;Signal;HPM_P1;HPM_P2
2022/11/10 00:02:53;;;;;;;56.80;28.23;;;;;;;8.82;93.00;99299.42;4320222;82;28511;-81
2022/11/10 00:09:14;;;;;;;63.38;30.90;;;;;;;8.64;93.51;99291.55;4320452;81;28478;-83
2022/11/10 00:22:12;;;;;;;63.70;33.80;;;;;;;8.42;96.10;99317.78;4261171;82;28583;-74
2022/11/10 00:28:31;;;;;;;62.38;31.73;;;;;;;8.75;95.29;99307.00;4261059;82;28507;-75
2022/11/10 00:34:51;;;;;;;54.30;26.87;;;;;;;8.68;92.63;99304.02;4261151;82;28539;-73
2022/11/10 00:41:10;;;;;;;51.05;27.02;;;;;;;8.63;88.19;99297.44;4261016;82;28554;-73
2022/11/10 00:47:30;;;;;;;56.23;29.37;;;;;;;8.57;88.10;99308.19;4261717;82;28527;-73
2022/11/10 00:53:50;;;;;;;64.03;30.77;;;;;;;8.65;86.96;99307.43;4261499;82;28547;-73
2022/11/10 01:00:10;;;;;;;64.62;31.40;;;;;;;8.50;89.06;99308.19;4278363;82;28516;-73
2022/11/10 01:06:29;;;;;;;68.72;33.35;;;;;;;8.49;92.63;99319.94;4295113;82;28509;-74
2022/11/10 01:12:49;;;;;;;66.70;34.05;;;;;;;8.53;94.65;99326.55;4328518;81;28481;-74
2022/11/10 01:19:08;;;;;;;65.15;33.88;;;;;;;8.52;94.37;99322.22;4302728;82;28508;-74
2022/11/10 01:25:28;;;;;;;70.15;34.10;;;;;;;8.33;95.39;99322.53;4285136;82;28468;-73
2022/11/10 01:31:48;;;;;;;64.20;31.95;;;;;;;8.50;94.55;99317.56;4278841;82;28476;-74
2022/11/10 01:38:07;;;;;;;68.62;32.05;;;;;;;8.49;93.40;99321.28;4278498;82;28517;-74
2022/11/10 01:44:27;;;;;;;61.88;32.25;;;;;;;8.41;93.45;99325.52;4278524;82;28478;-73
2022/11/10 01:50:48;;;;;;;60.48;31.85;;;;;;;8.41;98.40;99334.36;4278530;82;28523;-74
2022/11/10 01:57:11;;;;;;;64.15;33.45;;;;;;;8.49;98.18;99339.50;4271544;82;28511;-74
2022/11/10 02:03:42;;;;;;;63.30;32.42;;;;;;;8.43;97.10;99352.39;4170092;84;28503;-73
2022/11/10 02:10:04;;;;;;;71.20;32.58;;;;;;;8.53;98.86;99358.70;4172168;84;28550;-74
2022/11/10 02:16:23;;;;;;;69.15;32.75;;;;;;;8.61;97.72;99360.33;4171524;84;28527;-75
2022/11/10 02:22:43;;;;;;;69.92;32.25;;;;;;;8.73;98.55;99367.22;4154972;84;28495;-74
2022/11/10 02:29:03;;;;;;;65.40;32.70;;;;;;;8.69;98.34;99374.02;4171576;84;28519;-75
2022/11/10 02:35:22;;;;;;;67.47;31.30;;;;;;;8.76;97.34;99370.30;4171499;84;28549;-72
2022/11/10 02:41:42;;;;;;;62.10;31.80;;;;;;;8.75;93.10;99379.88;4171594;84;28523;-73
2022/11/10 02:48:02;;;;;;;56.73;29.67;;;;;;;8.63;92.54;99385.06;4171776;84;28531;-72
2022/11/10 02:54:21;;;;;;;56.37;28.83;;;;;;;8.71;93.15;99380.01;4187179;84;28593;-74
2022/11/10 03:00:41;;;;;;;51.75;28.65;;;;;;;8.54;93.17;99379.61;4307802;82;28544;-73
2022/11/10 03:07:00;;;;;;;50.78;27.85;;;;;;;8.19;95.48;99389.52;4319748;82;28499;-73
2022/11/10 03:13:20;;;;;;;57.43;29.57;;;;;;;7.95;94.89;99390.45;4352821;81;28549;-73
2022/11/10 03:19:40;;;;;;;53.42;28.40;;;;;;;8.10;95.11;99393.44;4360422;81;28530;-74
2022/11/10 03:26:05;;;;;;;53.35;28.10;;;;;;;8.16;93.52;99395.80;4360131;81;28524;-74
2022/11/10 03:32:25;;;;;;;49.80;28.00;;;;;;;8.21;92.70;99401.38;4345897;81;28593;-74
2022/11/10 03:38:45;;;;;;;51.83;27.50;;;;;;;8.23;92.00;99393.95;4261348;82;28596;-74
2022/11/10 03:45:05;;;;;;;52.75;28.55;;;;;;;8.20;90.59;99399.73;4261432;83;28523;-74
2022/11/10 03:51:25;;;;;;;50.78;26.10;;;;;;;8.71;94.08;99414.33;4262954;81;28538;-74
2022/11/10 03:57:45;;;;;;;51.98;27.75;;;;;;;8.95;90.42;99410.64;4175189;83;28490;-75
2022/11/10 04:04:04;;;;;;;47.60;25.27;;;;;;;8.93;89.17;99414.90;4150142;84;28518;-75
2022/11/10 04:10:23;;;;;;;48.48;26.10;;;;;;;9.04;89.04;99407.23;4195080;84;28537;-75
2022/11/10 04:16:43;;;;;;;51.40;27.15;;;;;;;9.10;89.71;99422.99;4242025;84;28507;-76
2022/11/10 04:29:41;;;;;;;47.38;25.23;;;;;;;9.37;92.40;99418.34;4242268;84;28496;-73
2022/11/10 04:36:00;;;;;;;48.28;24.65;;;;;;;9.62;95.79;99427.81;4242112;84;28499;-74
2022/11/10 04:42:19;;;;;;;50.70;24.72;;;;;;;9.96;97.02;99430.80;4242222;84;28491;-74
2022/11/10 04:48:39;;;;;;;50.20;25.27;;;;;;;10.03;100.00;99433.73;4213771;83;28551;-74
2022/11/10 04:54:59;;;;;;;48.35;24.80;;;;;;;10.47;100.00;99423.63;4185222;82;28543;-74
2022/11/10 05:01:23;;;;;;;53.17;26.33;;;;;;;10.86;100.00;99425.59;4120839;84;28586;-74
2022/11/10 05:07:47;;;;;;;61.68;28.80;;;;;;;10.81;100.00;99438.06;4120135;85;28495;-74
2022/11/10 05:14:07;;;;;;;82.08;40.48;;;;;;;10.96;100.00;99454.68;4168009;84;28516;-74
2022/11/10 05:20:27;;;;;;;82.62;40.50;;;;;;;11.10;100.00;99458.56;4156812;84;28503;-74
2022/11/10 05:26:46;;;;;;;66.42;33.25;;;;;;;11.21;100.00;99454.31;4120940;84;28536;-74
2022/11/10 05:33:06;;;;;;;59.20;29.95;;;;;;;11.37;100.00;99463.65;4157519;85;28542;-74
2022/11/10 05:39:25;;;;;;;62.15;30.00;;;;;;;11.54;100.00;99471.92;4212240;83;28509;-75
2022/11/10 05:45:45;;;;;;;61.92;29.40;;;;;;;11.29;100.00;99484.43;4186938;83;28472;-76
2022/11/10 05:52:04;;;;;;;59.10;30.20;;;;;;;11.46;100.00;99489.22;4247196;83;28479;-76
2022/11/10 05:58:24;;;;;;;57.43;29.55;;;;;;;11.40;100.00;99495.49;4246311;82;28499;-76
2022/11/10 06:04:43;;;;;;;53.10;28.38;;;;;;;11.46;100.00;99514.80;4232425;82;28474;-76
2022/11/10 06:11:03;;;;;;;54.48;28.55;;;;;;;11.50;100.00;99527.27;4186628;83;28658;-75
2022/11/10 06:17:26;;;;;;;52.45;27.40;;;;;;;11.69;100.00;99524.85;4162477;85;28498;-75
2022/11/10 06:23:46;;;;;;;47.38;24.85;;;;;;;11.73;100.00;99536.55;4178333;84;28562;-75
2022/11/10 06:30:06;;;;;;;53.85;24.87;;;;;;;11.89;100.00;99557.45;4173650;84;28493;-86
2022/11/10 06:36:26;;;;;;;43.75;23.70;;;;;;;11.94;100.00;99574.29;4230023;82;28471;-86
2022/11/10 06:42:45;;;;;;;47.35;24.55;;;;;;;11.96;100.00;99592.39;4193016;84;28592;-87
2022/11/10 06:49:05;;;;;;;47.13;23.40;;;;;;;12.10;100.00;99603.87;4121928;85;28475;-78
2022/11/10 06:55:25;;;;;;;42.25;22.15;;;;;;;12.38;98.80;99597.87;4113973;85;28526;-77
2022/11/10 07:01:44;;;;;;;40.98;20.97;;;;;;;12.43;98.56;99611.22;4151836;84;28572;-78
2022/11/10 07:08:17;;;;;;;47.95;23.55;;;;;;;12.53;97.51;99620.92;4156008;85;28530;-78
2022/11/10 07:14:36;;;;;;;44.10;22.67;;;;;;;12.66;95.68;99632.86;4156799;86;28451;-77
2022/11/10 07:20:56;;;;;;;44.15;21.95;;;;;;;12.71;95.06;99640.81;4157416;85;28534;-77
2022/11/10 07:27:15;;;;;;;43.30;22.05;;;;;;;12.67;94.94;99650.69;4157298;84;28518;-78
2022/11/10 07:33:35;;;;;;;45.88;22.90;;;;;;;12.43;97.04;99657.06;4157548;85;28499;-77
2022/11/10 07:39:54;;;;;;;46.45;22.60;;;;;;;12.45;98.55;99661.70;4157596;85;28626;-77
2022/11/10 07:46:14;;;;;;;42.90;22.90;;;;;;;12.57;99.24;99666.61;4157494;85;28522;-78
2022/11/10 07:52:35;;;;;;;43.85;23.22;;;;;;;12.65;99.67;99670.84;4128692;84;28474;-77
2022/11/10 07:58:55;;;;;;;44.18;23.80;;;;;;;12.84;98.75;99678.38;4129697;86;28514;-78
2022/11/10 08:05:14;;;;;;;45.20;23.07;;;;;;;12.82;99.02;99676.44;4076585;85;28480;-78
2022/11/10 08:11:34;;;;;;;48.90;24.45;;;;;;;12.85;98.52;99689.47;4168135;83;28534;-78
2022/11/10 08:18:18;;;;;;;51.92;25.02;;;;;;;13.05;97.82;99697.80;4233701;83;28502;-77
2022/11/10 08:24:41;;;;;;;50.05;25.40;;;;;;;13.56;94.69;99702.28;4250638;84;28531;-77
2022/11/10 08:31:02;;;;;;;50.50;25.15;;;;;;;13.31;96.53;99706.52;4250427;84;28490;-78
2022/11/10 08:37:26;;;;;;;43.52;23.52;;;;;;;13.07;98.61;99718.11;4250485;84;28618;-78
2022/11/10 08:43:46;;;;;;;48.25;24.75;;;;;;;13.38;98.11;99734.24;4250142;84;28625;-77
2022/11/10 08:50:07;;;;;;;45.40;24.07;;;;;;;13.65;97.09;99734.65;4250691;84;28628;-77
2022/11/10 08:56:26;;;;;;;44.38;24.30;;;;;;;13.76;97.94;99747.88;4250734;84;28966;-77
2022/11/10 09:02:46;;;;;;;48.95;25.35;;;;;;;13.93;97.70;99751.21;4245236;84;28523;-77
2022/11/10 09:09:06;;;;;;;47.88;25.48;;;;;;;14.02;97.03;99758.45;4237133;84;28580;-77
2022/11/10 09:15:25;;;;;;;45.65;25.48;;;;;;;14.20;95.81;99787.23;4186083;84;28543;-77
2022/11/10 09:21:47;;;;;;;46.98;25.32;;;;;;;14.30;95.15;99799.62;4185714;84;28565;-77
2022/11/10 09:28:12;;;;;;;49.13;26.37;;;;;;;14.08;96.98;99790.77;4185998;84;28539;-77
2022/11/10 09:34:31;;;;;;;47.33;25.30;;;;;;;14.41;95.94;99791.73;4186008;84;28531;-77
2022/11/10 09:41:03;;;;;;;42.13;22.67;;;;;;;14.50;96.66;99795.17;4185887;84;28524;-77
2022/11/10 09:47:43;;;;;;;45.15;23.52;;;;;;;14.79;95.75;99799.86;4186122;84;28529;-77
2022/11/10 09:54:24;;;;;;;42.43;22.65;;;;;;;15.17;94.57;99800.30;4185914;84;28538;-77
2022/11/10 10:01:33;;;;;;;50.12;24.40;;;;;;;15.29;95.09;99813.25;4188137;84;28521;-77
2022/11/10 10:08:04;;;;;;;47.40;24.35;;;;;;;15.46;94.11;99811.91;4186947;84;28585;-77
2022/11/10 10:14:35;;;;;;;42.45;23.50;;;;;;;15.59;95.05;99826.20;4190426;84;28494;-77
2022/11/10 10:21:41;;;;;;;46.68;24.07;;;;;;;15.81;93.24;99823.59;4190471;84;28517;-77
2022/11/10 10:28:36;;;;;;;46.63;23.52;;;;;;;15.63;94.33;99823.83;4190654;84;28471;-77
2022/11/10 10:35:08;;;;;;;43.98;23.18;;;;;;;15.77;92.51;99834.63;4190298;84;28529;-78
2022/11/10 10:41:31;;;;;;;42.70;22.67;;;;;;;15.74;93.25;99850.88;4190276;84;28543;-77
2022/11/10 10:47:53;;;;;;;44.83;23.38;;;;;;;15.94;92.47;99849.60;4190414;84;28491;-77
2022/11/10 10:54:35;;;;;;;41.75;22.80;;;;;;;15.96;93.20;99856.95;4190391;84;28518;-78
2022/11/10 11:01:18;;;;;;;44.42;22.80;;;;;;;16.14;92.07;99863.17;4208359;83;28521;-77
2022/11/10 11:07:38;;;;;;;45.50;23.95;;;;;;;16.17;92.03;99865.41;4222609;83;28510;-77
2022/11/10 11:14:22;;;;;;;44.95;22.82;;;;;;;16.20;92.03;99867.61;4199580;83;28486;-76
2022/11/10 11:20:59;;;;;;;40.75;21.50;;;;;;;16.21;92.87;99877.95;4197302;83;28523;-77
2022/11/10 11:27:43;;;;;;;43.33;21.52;;;;;;;16.15;93.53;99872.98;4196506;83;28545;-77
2022/11/10 11:34:14;;;;;;;42.70;19.85;;;;;;;15.88;96.02;99873.59;4197050;83;28592;-77
2022/11/10 11:40:54;;;;;;;42.73;20.12;;;;;;;15.89;97.89;99878.78;4197336;83;28597;-77
2022/11/10 11:47:58;;;;;;;41.65;19.85;;;;;;;15.94;98.46;99885.38;4197214;83;28449;-77
2022/11/10 11:54:43;;;;;;;42.50;19.90;;;;;;;16.05;98.25;99891.80;4197213;83;28521;-77
2022/11/10 12:01:16;;;;;;;37.75;18.37;;;;;;;16.12;97.40;99908.71;4195749;83;28542;-77
2022/11/10 12:08:13;;;;;;;40.03;19.05;;;;;;;16.23;97.49;99915.95;4180905;85;28581;-77
2022/11/10 12:15:17;;;;;;;39.60;18.92;;;;;;;16.48;96.30;99909.28;4194586;85;28491;-77
2022/11/10 12:22:03;;;;;;;37.00;17.77;;;;;;;16.72;94.24;99904.98;4195390;85;28483;-77
2022/11/10 12:28:28;;;;;;;37.93;18.60;;;;;;;17.00;93.22;99920.32;4195528;85;28594;-78
2022/11/10 12:34:52;;;;;;;37.40;18.73;;;;;;;16.66;94.01;99919.03;4195217;85;28502;-77
2022/11/10 12:41:17;;;;;;;39.95;18.73;;;;;;;16.47;94.25;99923.92;4195511;85;28565;-78
2022/11/10 12:47:47;;;;;;;38.55;18.70;;;;;;;16.61;93.92;99938.50;4196398;85;28511;-77
2022/11/10 12:54:11;;;;;;;37.28;17.67;;;;;;;16.76;93.61;99931.91;4195790;85;28544;-77
2022/11/10 13:00:39;;;;;;;33.33;17.32;;;;;;;16.88;92.99;99937.80;4208451;83;28538;-78
2022/11/10 13:07:07;;;;;;;37.30;18.87;;;;;;;16.93;92.71;99939.20;4227820;83;28490;-77
2022/11/10 13:13:27;;;;;;;36.17;18.32;;;;;;;16.78;92.95;99942.54;4205491;83;28538;-78
2022/11/10 13:19:49;;;;;;;40.15;18.73;;;;;;;16.47;94.18;99943.45;4227884;83;28594;-78
2022/11/10 13:26:31;;;;;;;39.85;18.52;;;;;;;16.17;95.34;99959.80;4227462;83;28534;-78
2022/11/10 13:32:51;;;;;;;37.48;19.05;;;;;;;15.84;97.45;99967.35;4227714;83;28597;-76
2022/11/10 13:39:24;;;;;;;36.08;18.17;;;;;;;15.93;97.38;99978.65;4227697;83;28500;-77
2022/11/10 13:45:45;;;;;;;36.68;17.62;;;;;;;16.03;96.43;99980.99;4227471;83;28642;-77
2022/11/10 13:52:34;;;;;;;42.67;18.77;;;;;;;15.82;97.83;99989.27;4227905;83;28476;-78
2022/11/10 13:58:56;;;;;;;42.55;18.80;;;;;;;15.73;98.15;100005.12;4227745;83;28499;-77
2022/11/10 14:05:37;;;;;;;36.28;17.20;;;;;;;15.53;99.58;99999.30;4227501;83;28557;-77
2022/11/10 14:12:06;;;;;;;37.40;18.48;;;;;;;15.36;100.00;100000.03;4259679;83;28511;-78
2022/11/10 14:18:39;;;;;;;35.03;16.73;;;;;;;15.30;100.00;100000.98;4407023;81;28488;-76
2022/11/10 14:25:36;;;;;;;35.28;17.37;;;;;;;14.98;100.00;100019.81;4394266;81;28555;-78
2022/11/10 14:31:58;;;;;;;36.50;17.10;;;;;;;14.96;100.00;100034.64;4378662;81;28450;-77
2022/11/10 14:38:25;;;;;;;35.88;18.02;;;;;;;14.87;100.00;100048.53;4406729;81;28467;-76
2022/11/10 14:44:45;;;;;;;37.28;16.87;;;;;;;14.85;100.00;100055.26;4406732;81;28462;-80
2022/11/10 14:51:14;;;;;;;34.03;17.00;;;;;;;14.85;100.00;100054.71;4406822;81;29071;-77
2022/11/10 14:57:33;;;;;;;35.60;16.20;;;;;;;14.89;100.00;100046.44;4406665;81;28497;-77
2022/11/10 15:03:55;;;;;;;33.48;16.15;;;;;;;14.87;100.00;100058.00;4388944;81;28502;-77
2022/11/10 15:10:29;;;;;;;35.03;16.30;;;;;;;14.87;100.00;100074.80;4386364;81;28478;-78
2022/11/10 15:17:02;;;;;;;31.45;15.32;;;;;;;14.85;100.00;100087.75;4386533;81;28484;-77
2022/11/10 15:23:35;;;;;;;33.60;16.30;;;;;;;14.77;100.00;100092.44;4386448;81;28510;-79
2022/11/10 15:29:58;;;;;;;33.42;16.30;;;;;;;14.57;100.00;100102.17;4386599;80;28462;-78
2022/11/10 15:36:31;;;;;;;28.60;15.32;;;;;;;14.77;100.00;100105.97;4386573;81;28537;-78
2022/11/10 15:43:15;;;;;;;29.15;15.80;;;;;;;14.81;100.00;100113.62;4386670;81;28459;-78
2022/11/10 15:49:37;;;;;;;30.27;14.98;;;;;;;14.69;100.00;100119.00;4386747;81;28449;-78
2022/11/10 15:55:56;;;;;;;31.68;15.00;;;;;;;14.68;100.00;100130.85;4386449;80;28534;-77
2022/11/10 16:02:23;;;;;;;29.67;14.83;;;;;;;14.58;100.00;100136.84;4386623;80;28498;-78
2022/11/10 16:08:43;;;;;;;29.57;14.58;;;;;;;14.57;100.00;100148.18;4383281;81;28533;-76
2022/11/10 16:15:03;;;;;;;29.92;14.00;;;;;;;14.48;100.00;100161.77;4386851;81;28530;-76
2022/11/10 16:21:25;;;;;;;27.07;13.50;;;;;;;14.41;100.00;100169.94;4386765;81;28556;-78
2022/11/10 16:27:47;;;;;;;29.85;14.83;;;;;;;14.35;100.00;100174.39;4323618;80;28543;-78
2022/11/10 16:34:13;;;;;;;29.10;14.23;;;;;;;14.40;100.00;100174.25;4297361;80;28480;-78
2022/11/10 16:40:33;;;;;;;27.87;13.25;;;;;;;14.28;100.00;100182.30;4302555;80;28536;-78
2022/11/10 16:46:55;;;;;;;31.60;16.35;;;;;;;14.18;100.00;100183.66;4318222;80;28505;-77
2022/11/10 16:53:19;;;;;;;30.27;15.30;;;;;;;14.02;100.00;100190.50;4323425;79;28520;-77
2022/11/10 16:59:39;;;;;;;29.25;15.45;;;;;;;14.35;100.00;100204.15;4298201;81;28531;-85
2022/11/10 17:05:59;;;;;;;39.50;18.85;;;;;;;14.22;100.00;100222.74;4320579;80;28501;-84
2022/11/10 17:12:23;;;;;;;39.73;19.40;;;;;;;14.26;100.00;100236.61;4352431;80;28450;-85
2022/11/10 17:18:47;;;;;;;38.00;19.73;;;;;;;14.18;100.00;100249.92;4318207;80;28467;-85
2022/11/10 17:25:17;;;;;;;40.65;19.87;;;;;;;14.06;100.00;100267.44;4312272;79;28501;-86
2022/11/10 17:31:55;;;;;;;;;;;;;;;;;;;;;
2022/11/10 17:38:25;;;;;;;37.35;18.73;;;;;;;13.51;100.00;100293.81;4314174;80;28437;-84
2022/11/10 17:44:45;;;;;;;38.05;18.85;;;;;;;13.57;100.00;100296.97;4344502;80;28510;-79
2022/11/10 17:51:12;;;;;;;39.35;20.25;;;;;;;13.27;100.00;100301.62;4356441;80;28498;-91
2022/11/10 17:57:32;;;;;;;38.90;21.05;;;;;;;13.11;100.00;100299.75;4308499;80;28458;-89
2022/11/10 18:03:54;;;;;;;45.25;23.62;;;;;;;12.89;100.00;100313.27;4325974;80;28461;-87
2022/11/10 18:10:17;;;;;;;43.38;21.20;;;;;;;12.86;100.00;100325.83;4297690;79;28477;-76
2022/11/10 18:16:37;;;;;;;41.60;22.02;;;;;;;12.92;100.00;100324.98;4247077;82;28498;-83
2022/11/10 18:23:24;;;;;;;42.50;21.23;;;;;;;12.80;100.00;100326.16;4235082;82;28476;-92
2022/11/10 18:29:40;;;;;;;;;;;;;;;;;;;;;
2022/11/10 18:36:04;;;;;;;43.05;21.97;;;;;;;13.07;100.00;100320.66;4157132;84;28477;-88
2022/11/10 18:42:33;;;;;;;43.08;22.07;;;;;;;13.06;100.00;100322.52;4224506;82;28492;-93
2022/11/10 18:48:55;;;;;;;39.45;19.95;;;;;;;13.23;100.00;100332.31;4237279;82;28503;-85
2022/11/10 18:55:19;;;;;;;41.20;21.25;;;;;;;13.23;100.00;100337.70;4182776;83;28483;-88
2022/11/10 19:01:38;;;;;;;41.58;20.90;;;;;;;13.02;100.00;100346.95;4253450;81;28569;-84
2022/11/10 19:08:00;;;;;;;43.08;22.32;;;;;;;13.20;100.00;100353.51;4180343;83;28470;-87
2022/11/10 19:14:24;;;;;;;44.98;23.57;;;;;;;13.03;100.00;100362.09;4357505;79;28555;-86
2022/11/10 19:20:47;;;;;;;45.83;23.95;;;;;;;12.78;100.00;100363.34;4319319;80;28478;-90
2022/11/10 19:27:12;;;;;;;45.80;23.98;;;;;;;12.52;100.00;100379.39;4336362;80;28469;-91
2022/11/10 19:33:35;;;;;;;47.85;24.23;;;;;;;12.42;100.00;100377.64;4309391;80;28512;-89
2022/11/10 19:39:55;;;;;;;51.25;25.68;;;;;;;12.22;100.00;100383.89;4327391;80;28560;-79
2022/11/10 19:46:19;;;;;;;53.40;27.50;;;;;;;12.12;100.00;100383.48;4341158;80;28466;-78
2022/11/10 19:52:38;;;;;;;54.55;27.25;;;;;;;12.13;100.00;100392.72;4373750;80;28502;-79
2022/11/10 19:58:58;;;;;;;50.35;27.82;;;;;;;12.12;100.00;100408.59;4361399;79;28523;-77
2022/11/10 20:05:21;;;;;;;57.70;28.12;;;;;;;12.02;100.00;100415.39;4299127;79;28526;-79
2022/11/10 20:12:03;;;;;;;57.27;29.20;;;;;;;11.89;100.00;100424.31;4359137;80;28458;-85
2022/11/10 20:18:25;;;;;;;55.45;28.65;;;;;;;11.86;100.00;100430.94;4299191;80;28471;-82
2022/11/10 20:24:47;;;;;;;52.83;27.85;;;;;;;11.88;100.00;100438.83;4305945;80;28461;-85
2022/11/10 20:31:24;;;;;;;55.88;28.23;;;;;;;11.67;100.00;100447.39;4295886;80;28480;-79
2022/11/10 20:37:47;;;;;;;50.83;27.70;;;;;;;11.63;100.00;100449.66;4354420;80;28491;-86
2022/11/10 20:44:12;;;;;;;53.70;26.85;;;;;;;11.65;100.00;100456.17;4330739;80;28469;-82
2022/11/10 20:50:31;;;;;;;53.73;26.25;;;;;;;11.73;100.00;100467.30;4305692;80;28560;-76
2022/11/10 20:56:53;;;;;;;50.95;25.77;;;;;;;11.79;100.00;100479.94;4341061;80;28461;-76
2022/11/10 21:03:14;;;;;;;48.28;25.20;;;;;;;11.70;100.00;100481.47;4310396;80;28557;-78
2022/11/10 21:09:34;;;;;;;48.17;26.57;;;;;;;11.69;100.00;100464.98;4283459;80;28518;-78
2022/11/10 21:15:57;;;;;;;51.75;27.22;;;;;;;11.64;100.00;100460.75;4269121;81;28541;-78
2022/11/10 21:22:18;;;;;;;52.80;26.70;;;;;;;11.52;100.00;100470.45;4268354;81;28598;-77
2022/11/10 21:28:41;;;;;;;55.48;27.75;;;;;;;11.36;100.00;100480.53;4267991;81;28503;-77
2022/11/10 21:35:03;;;;;;;58.85;28.67;;;;;;;11.27;100.00;100471.80;4286750;81;28491;-77
2022/11/10 21:41:24;;;;;;;52.95;27.82;;;;;;;11.31;100.00;100491.09;4286399;81;28516;-81
2022/11/10 21:47:47;;;;;;;54.13;28.32;;;;;;;11.26;100.00;100485.45;4326638;80;28575;-77
2022/11/10 21:54:11;;;;;;;54.33;27.40;;;;;;;11.21;100.00;100498.70;4340787;80;29011;-78
2022/11/10 22:00:31;;;;;;;53.43;26.60;;;;;;;11.34;100.00;100487.98;4378579;80;28488;-77
2022/11/10 22:20:07;;;;;;;48.17;26.50;;;;;;;11.08;100.00;100502.95;4324027;81;28583;-78
2022/11/10 22:26:28;;;;;;;53.58;27.60;;;;;;;11.04;100.00;100500.36;4310787;81;28430;-77
2022/11/10 22:32:48;;;;;;;48.00;26.68;;;;;;;10.96;100.00;100497.81;4382286;80;28477;-77
2022/11/10 22:39:09;;;;;;;56.98;28.17;;;;;;;10.91;100.00;100501.10;4334134;81;28526;-77
2022/11/10 22:45:29;;;;;;;52.48;27.82;;;;;;;10.85;100.00;100506.76;4354898;80;28496;-77
2022/11/10 22:51:51;;;;;;;51.90;26.02;;;;;;;10.80;100.00;100510.56;4335184;81;28502;-76
2022/11/10 22:58:11;;;;;;;51.40;27.27;;;;;;;10.68;100.00;100510.80;4296687;80;28538;-79
2022/11/10 23:04:30;;;;;;;50.90;26.75;;;;;;;10.70;100.00;100514.11;4258898;81;28467;-78
2022/11/10 23:11:03;;;;;;;54.58;27.35;;;;;;;10.56;100.00;100518.55;4245728;82;28453;-78
2022/11/10 23:17:23;;;;;;;53.98;27.93;;;;;;;10.62;100.00;100522.31;4278948;81;28558;-78
2022/11/10 23:23:44;;;;;;;52.25;28.07;;;;;;;10.45;100.00;100523.43;4260186;81;28472;-78
2022/11/10 23:30:04;;;;;;;55.48;26.62;;;;;;;10.55;100.00;100522.27;4301473;81;28516;-79
2022/11/10 23:36:26;;;;;;;59.05;28.10;;;;;;;10.46;100.00;100524.25;4272249;81;28499;-78
2022/11/10 23:42:45;;;;;;;50.08;25.65;;;;;;;10.47;100.00;100520.56;4286933;81;28504;-77
2022/11/10 23:49:05;;;;;;;48.52;24.82;;;;;;;10.18;100.00;100521.80;4289768;83;28523;-77
2022/11/10 23:55:24;;;;;;;48.45;24.82;;;;;;;10.13;100.00;100531.46;4285971;81;28535;-77
